Time;durP1;ratioP1;P1;durP2;ratioP2;P2;SDS_P1;SDS_P2;PMS_P1;PMS_P2;Temp;Humidity;BMP_temperature;BMP_pressure;BME280_temperature;BME280_humidity;BME280_pressure;Samples;Min_cycle;Max_cycle;Signal;HPM_P1;HPM_P2
2022/08/28 00:02:07;;;;;;;1.20;1.20;;;;;;;;;;5048988;28;20208;-63
2022/08/28 00:04:36;;;;;;;1.20;1.20;;;;;;;;;;5065142;28;20227;-64
2022/08/28 00:07:03;;;;;;;0.95;0.95;;;;;;;;;;5061620;28;20214;-64
2022/08/28 00:09:30;;;;;;;1.38;1.20;;;;;;;;;;5053182;28;20210;-65
2022/08/28 00:11:57;;;;;;;1.52;1.52;;;;;;;;;;5055357;28;20207;-65
2022/08/28 00:14:25;;;;;;;1.67;1.50;;;;;;;;;;5055639;28;20203;-65
2022/08/28 00:16:53;;;;;;;2.35;1.50;;;;;;;;;;5058576;28;20207;-64
2022/08/28 00:19:21;;;;;;;1.38;1.15;;;;;;;;;;5058052;28;20903;-64
2022/08/28 00:21:50;;;;;;;1.70;1.60;;;;;;;;;;5060520;28;20250;-64
2022/08/28 00:24:17;;;;;;;1.85;1.40;;;;;;;;;;5067981;28;20203;-65
2022/08/28 00:29:30;;;;;;;1.45;1.38;;;;;;;;;;5064015;28;20246;-64
2022/08/28 00:31:58;;;;;;;1.23;1.23;;;;;;;;;;5049663;28;20257;-64
2022/08/28 00:34:26;;;;;;;1.23;1.20;;;;;;;;;;5054558;28;20206;-65
2022/08/28 00:36:54;;;;;;;1.10;1.10;;;;;;;;;;5055497;28;20204;-64
2022/08/28 00:39:21;;;;;;;1.50;1.40;;;;;;;;;;5055921;28;20220;-64
2022/08/28 00:41:49;;;;;;;1.23;1.23;;;;;;;;;;5058269;28;20208;-64
2022/08/28 00:44:17;;;;;;;1.45;1.35;;;;;;;;;;5058778;28;20204;-64
2022/08/28 00:46:46;;;;;;;1.88;1.08;;;;;;;;;;5052413;28;20682;-64
2022/08/28 00:49:14;;;;;;;1.10;1.10;;;;;;;;;;5057027;28;20310;-64
2022/08/28 00:54:40;;;;;;;1.30;1.20;;;;;;;;;;5004677;28;20209;-63
2022/08/28 00:57:10;;;;;;;1.27;1.20;;;;;;;;;;5044162;28;20209;-64
2022/08/28 00:59:38;;;;;;;1.35;1.35;;;;;;;;;;5059468;28;20203;-64
2022/08/28 01:02:06;;;;;;;1.10;1.10;;;;;;;;;;5057467;28;20231;-64
2022/08/28 01:04:34;;;;;;;1.38;1.27;;;;;;;;;;5057795;28;20269;-64
2022/08/28 01:07:04;;;;;;;1.25;1.15;;;;;;;;;;5057624;28;20203;-65
2022/08/28 01:09:31;;;;;;;2.20;1.58;;;;;;;;;;5058108;28;20214;-66
2022/08/28 01:12:02;;;;;;;1.10;1.10;;;;;;;;;;5057380;28;20202;-64
2022/08/28 01:14:30;;;;;;;1.35;1.27;;;;;;;;;;5053648;28;20290;-64
2022/08/28 01:16:58;;;;;;;2.45;1.00;;;;;;;;;;5056410;28;20207;-64
2022/08/28 01:19:30;;;;;;;1.30;1.30;;;;;;;;;;5057751;28;20218;-64
2022/08/28 01:22:01;;;;;;;1.10;1.10;;;;;;;;;;5057454;28;20239;-64
2022/08/28 01:24:29;;;;;;;1.33;1.33;;;;;;;;;;5057758;28;20207;-64
2022/08/28 01:26:56;;;;;;;1.05;1.05;;;;;;;;;;5055667;28;20223;-65
2022/08/28 01:29:24;;;;;;;1.50;1.27;;;;;;;;;;5055588;28;20226;-64
2022/08/28 01:31:51;;;;;;;1.10;1.10;;;;;;;;;;5056282;28;20218;-63
2022/08/28 01:34:18;;;;;;;1.20;1.20;;;;;;;;;;5055509;28;20207;-66
2022/08/28 01:36:47;;;;;;;1.48;1.38;;;;;;;;;;5055682;28;20196;-64
2022/08/28 01:39:15;;;;;;;1.08;1.08;;;;;;;;;;5058611;28;20204;-63
2022/08/28 01:41:46;;;;;;;1.48;1.38;;;;;;;;;;5056997;28;20206;-66
2022/08/28 01:44:14;;;;;;;1.83;1.35;;;;;;;;;;5056484;28;20206;-66
2022/08/28 01:46:41;;;;;;;1.30;1.20;;;;;;;;;;5052271;28;20318;-64
2022/08/28 01:49:10;;;;;;;1.10;1.10;;;;;;;;;;5055052;28;20211;-66
2022/08/28 01:51:38;;;;;;;3.00;1.02;;;;;;;;;;5058017;28;20203;-64
2022/08/28 01:54:08;;;;;;;1.17;1.17;;;;;;;;;;5052380;28;20211;-64
2022/08/28 01:56:35;;;;;;;1.10;1.10;;;;;;;;;;5066595;28;20204;-64
2022/08/28 01:59:05;;;;;;;1.08;1.08;;;;;;;;;;5065064;28;20249;-65
2022/08/28 02:01:32;;;;;;;2.95;1.33;;;;;;;;;;5052539;28;20204;-64
2022/08/28 02:04:00;;;;;;;1.08;1.08;;;;;;;;;;5064053;28;20234;-64
2022/08/28 02:06:27;;;;;;;1.13;1.13;;;;;;;;;;5065079;28;20345;-64
2022/08/28 02:08:54;;;;;;;1.45;1.27;;;;;;;;;;5071119;28;20211;-64
2022/08/28 02:11:22;;;;;;;3.55;1.38;;;;;;;;;;5069294;28;20256;-64
2022/08/28 02:13:49;;;;;;;1.20;1.20;;;;;;;;;;5066799;28;20195;-64
2022/08/28 02:16:18;;;;;;;1.40;1.30;;;;;;;;;;5050245;28;20215;-65
2022/08/28 02:18:45;;;;;;;1.00;1.00;;;;;;;;;;5059767;28;20227;-64
2022/08/28 02:21:13;;;;;;;1.23;1.23;;;;;;;;;;5052585;28;20656;-65
2022/08/28 02:23:41;;;;;;;1.35;0.80;;;;;;;;;;5067425;28;20306;-64
2022/08/28 02:26:08;;;;;;;1.10;1.10;;;;;;;;;;5058123;28;20243;-64
2022/08/28 02:28:36;;;;;;;1.42;1.35;;;;;;;;;;5067861;28;20217;-64
2022/08/28 02:31:04;;;;;;;1.23;1.23;;;;;;;;;;5069506;28;20218;-64
2022/08/28 02:33:33;;;;;;;1.20;1.08;;;;;;;;;;5063881;28;20196;-64
2022/08/28 02:36:00;;;;;;;3.45;1.33;;;;;;;;;;5050673;28;20650;-64
2022/08/28 02:38:28;;;;;;;2.85;1.40;;;;;;;;;;5067227;28;20696;-63
2022/08/28 02:40:56;;;;;;;1.00;1.00;;;;;;;;;;5054402;28;20955;-65
2022/08/28 02:43:23;;;;;;;1.08;1.08;;;;;;;;;;5055929;28;20199;-64
2022/08/28 02:45:50;;;;;;;1.27;1.20;;;;;;;;;;5054027;28;20226;-64
2022/08/28 02:48:17;;;;;;;0.90;0.90;;;;;;;;;;5053925;28;20298;-65
2022/08/28 02:50:46;;;;;;;0.90;0.90;;;;;;;;;;5057727;28;20203;-64
2022/08/28 02:53:13;;;;;;;1.20;1.20;;;;;;;;;;5060869;28;20212;-65
2022/08/28 02:55:40;;;;;;;1.40;1.17;;;;;;;;;;5063743;28;20211;-65
2022/08/28 02:58:08;;;;;;;1.38;1.27;;;;;;;;;;5059875;28;20207;-65
2022/08/28 03:00:35;;;;;;;1.83;1.38;;;;;;;;;;5065265;28;20210;-64
2022/08/28 03:03:04;;;;;;;1.63;1.52;;;;;;;;;;5068321;28;20257;-64
2022/08/28 03:05:31;;;;;;;1.02;1.02;;;;;;;;;;5057458;28;20230;-64
2022/08/28 03:07:59;;;;;;;1.30;1.30;;;;;;;;;;5054319;28;20208;-64
2022/08/28 03:10:26;;;;;;;1.33;1.10;;;;;;;;;;5053643;28;20208;-64
2022/08/28 03:12:54;;;;;;;1.23;1.20;;;;;;;;;;5057007;28;20666;-64
2022/08/28 03:15:21;;;;;;;1.08;1.08;;;;;;;;;;5055505;28;20203;-64
2022/08/28 03:17:48;;;;;;;1.08;1.08;;;;;;;;;;5063044;28;20216;-64
2022/08/28 03:20:17;;;;;;;1.98;1.30;;;;;;;;;;5049526;28;20219;-64
2022/08/28 03:25:31;;;;;;;2.90;1.27;;;;;;;;;;5068666;28;20680;-64
2022/08/28 03:27:58;;;;;;;1.08;1.08;;;;;;;;;;5061924;28;20203;-64
2022/08/28 03:30:26;;;;;;;1.00;1.00;;;;;;;;;;5060883;28;20206;-64
2022/08/28 03:32:53;;;;;;;1.20;1.20;;;;;;;;;;5059566;28;20260;-64
2022/08/28 03:35:21;;;;;;;1.40;1.25;;;;;;;;;;5053556;28;20238;-64
2022/08/28 03:37:48;;;;;;;1.15;1.15;;;;;;;;;;5051037;28;20203;-64
2022/08/28 03:40:15;;;;;;;1.23;1.10;;;;;;;;;;5067199;28;20207;-65
2022/08/28 03:42:43;;;;;;;2.25;1.38;;;;;;;;;;5066990;28;20203;-64
2022/08/28 03:45:11;;;;;;;1.20;1.20;;;;;;;;;;5052021;28;21052;-65
2022/08/28 03:47:40;;;;;;;1.27;1.13;;;;;;;;;;5057780;28;20313;-64
2022/08/28 03:50:10;;;;;;;1.23;1.23;;;;;;;;;;5063166;28;20599;-63
2022/08/28 03:52:37;;;;;;;1.27;1.27;;;;;;;;;;5047752;28;20207;-64
2022/08/28 03:55:04;;;;;;;1.55;1.48;;;;;;;;;;5048424;28;20307;-64
2022/08/28 03:57:31;;;;;;;1.40;1.30;;;;;;;;;;5048211;28;20203;-63
2022/08/28 04:00:00;;;;;;;1.30;1.27;;;;;;;;;;5054592;28;20211;-63
2022/08/28 04:02:27;;;;;;;1.02;1.02;;;;;;;;;;5053882;28;20896;-63
2022/08/28 04:04:54;;;;;;;1.38;1.02;;;;;;;;;;5058242;28;20226;-63
2022/08/28 04:07:21;;;;;;;1.30;1.30;;;;;;;;;;5049370;28;20219;-64
2022/08/28 04:09:48;;;;;;;0.98;0.98;;;;;;;;;;5066032;28;20199;-63
2022/08/28 04:12:15;;;;;;;1.77;1.38;;;;;;;;;;5054736;28;20212;-63
2022/08/28 04:14:42;;;;;;;1.45;1.30;;;;;;;;;;5058513;28;20227;-64
2022/08/28 04:17:11;;;;;;;1.30;1.20;;;;;;;;;;5049638;28;20227;-64
2022/08/28 04:19:38;;;;;;;1.08;1.08;;;;;;;;;;5058132;28;20207;-64
2022/08/28 04:22:07;;;;;;;3.03;1.48;;;;;;;;;;5063615;28;20230;-64
2022/08/28 04:24:34;;;;;;;1.33;1.30;;;;;;;;;;5048165;28;20204;-63
2022/08/28 04:27:01;;;;;;;1.52;1.42;;;;;;;;;;5055072;28;20252;-63
2022/08/28 04:29:29;;;;;;;1.20;1.08;;;;;;;;;;5057159;28;20271;-62
2022/08/28 04:31:56;;;;;;;0.90;0.90;;;;;;;;;;5051353;28;20742;-64
2022/08/28 04:34:25;;;;;;;1.23;1.23;;;;;;;;;;5065311;28;20221;-63
2022/08/28 04:36:52;;;;;;;3.35;1.20;;;;;;;;;;5063703;28;20298;-63
2022/08/28 04:39:19;;;;;;;0.98;0.98;;;;;;;;;;5047052;28;20215;-63
2022/08/28 04:41:48;;;;;;;0.82;0.82;;;;;;;;;;5061136;28;20277;-63
2022/08/28 04:44:15;;;;;;;1.02;0.93;;;;;;;;;;5064273;28;20261;-63
2022/08/28 04:46:42;;;;;;;1.25;1.20;;;;;;;;;;5059083;28;20227;-63
2022/08/28 04:49:10;;;;;;;0.75;0.75;;;;;;;;;;5065562;28;20206;-63
2022/08/28 04:51:40;;;;;;;1.25;0.80;;;;;;;;;;5051248;28;20583;-63
2022/08/28 04:54:09;;;;;;;1.27;1.00;;;;;;;;;;5047151;28;20254;-63
2022/08/28 04:56:36;;;;;;;2.00;1.15;;;;;;;;;;5047236;28;20365;-62
2022/08/28 04:59:04;;;;;;;1.38;0.93;;;;;;;;;;5048076;28;20710;-63
2022/08/28 05:01:31;;;;;;;0.85;0.73;;;;;;;;;;5054960;28;20223;-63
2022/08/28 05:03:59;;;;;;;2.47;1.15;;;;;;;;;;5055510;28;20210;-63
2022/08/28 05:06:27;;;;;;;2.00;1.02;;;;;;;;;;5055038;28;20223;-64
2022/08/28 05:08:55;;;;;;;2.67;0.90;;;;;;;;;;5057408;28;20196;-63
2022/08/28 05:11:24;;;;;;;1.08;1.08;;;;;;;;;;5055502;28;20563;-63
2022/08/28 05:13:51;;;;;;;1.70;0.75;;;;;;;;;;5057247;28;20215;-63
2022/08/28 05:16:19;;;;;;;1.13;1.08;;;;;;;;;;5061792;28;20222;-63
2022/08/28 05:18:46;;;;;;;2.95;1.10;;;;;;;;;;5060710;28;20219;-63
2022/08/28 05:21:14;;;;;;;0.80;0.80;;;;;;;;;;5049891;28;20203;-63
2022/08/28 05:23:41;;;;;;;1.05;0.70;;;;;;;;;;5061441;28;20763;-63
2022/08/28 05:26:12;;;;;;;0.63;0.63;;;;;;;;;;5053588;28;20222;-62
2022/08/28 05:28:39;;;;;;;0.50;0.50;;;;;;;;;;5051957;28;20203;-67
2022/08/28 05:31:10;;;;;;;0.30;0.30;;;;;;;;;;5059894;28;20207;-66
2022/08/28 05:33:37;;;;;;;0.75;0.75;;;;;;;;;;5062818;28;20211;-66
2022/08/28 05:36:05;;;;;;;2.80;0.73;;;;;;;;;;5045857;28;20214;-67
2022/08/28 05:38:33;;;;;;;2.05;1.05;;;;;;;;;;5045809;28;20204;-66
2022/08/28 05:41:01;;;;;;;1.88;0.77;;;;;;;;;;5045700;28;20261;-67
2022/08/28 05:43:30;;;;;;;0.80;0.80;;;;;;;;;;5049786;28;20203;-68
2022/08/28 05:45:58;;;;;;;0.82;0.82;;;;;;;;;;5051669;28;20210;-66
2022/08/28 05:48:26;;;;;;;1.08;0.90;;;;;;;;;;5055591;28;20234;-67
2022/08/28 05:50:53;;;;;;;1.58;1.20;;;;;;;;;;5055317;28;20284;-67
2022/08/28 05:53:20;;;;;;;0.98;0.98;;;;;;;;;;5049081;28;20697;-68
2022/08/28 05:55:47;;;;;;;0.90;0.90;;;;;;;;;;5049932;28;20204;-66
2022/08/28 05:58:31;;;;;;;0.60;0.60;;;;;;;;;;5048504;28;20200;-67
2022/08/28 06:01:05;;;;;;;0.60;0.60;;;;;;;;;;5065436;28;20699;-68
2022/08/28 06:03:32;;;;;;;0.60;0.60;;;;;;;;;;5065546;28;20735;-66
2022/08/28 06:06:00;;;;;;;0.80;0.80;;;;;;;;;;5051058;28;20227;-67
2022/08/28 06:08:27;;;;;;;1.77;0.93;;;;;;;;;;5050885;28;20277;-59
2022/08/28 06:10:57;;;;;;;1.30;0.68;;;;;;;;;;5052139;28;20219;-64
2022/08/28 06:13:24;;;;;;;1.13;0.57;;;;;;;;;;5050766;28;20214;-62
2022/08/28 06:15:51;;;;;;;0.98;0.88;;;;;;;;;;5053547;28;20222;-62
2022/08/28 06:18:19;;;;;;;1.33;0.95;;;;;;;;;;5054701;28;20375;-62
2022/08/28 06:20:47;;;;;;;2.42;0.95;;;;;;;;;;5055401;28;20514;-63
2022/08/28 06:23:15;;;;;;;1.30;1.15;;;;;;;;;;5050825;28;20232;-63
2022/08/28 06:25:45;;;;;;;1.95;0.98;;;;;;;;;;5048763;28;20224;-63
2022/08/28 06:28:13;;;;;;;1.77;0.70;;;;;;;;;;5050601;28;20251;-62
2022/08/28 06:30:42;;;;;;;1.00;1.00;;;;;;;;;;5061987;28;20213;-62
2022/08/28 06:33:09;;;;;;;0.22;0.22;;;;;;;;;;5062041;28;20196;-63
2022/08/28 06:35:41;;;;;;;0.60;0.60;;;;;;;;;;5050754;28;20223;-63
2022/08/28 06:38:09;;;;;;;0.77;0.77;;;;;;;;;;5049616;28;20200;-63
2022/08/28 06:40:39;;;;;;;1.02;0.70;;;;;;;;;;5048784;28;20277;-62
2022/08/28 06:43:06;;;;;;;1.92;0.82;;;;;;;;;;5055922;28;20334;-60
2022/08/28 06:45:33;;;;;;;0.70;0.70;;;;;;;;;;5054285;28;20212;-62
2022/08/28 06:48:00;;;;;;;0.82;0.82;;;;;;;;;;5050368;28;20293;-62
2022/08/28 06:50:27;;;;;;;0.50;0.50;;;;;;;;;;5049981;28;20231;-62
2022/08/28 06:52:56;;;;;;;3.75;0.95;;;;;;;;;;5052163;28;20207;-62
2022/08/28 06:55:23;;;;;;;0.70;0.70;;;;;;;;;;5056437;28;20284;-62
2022/08/28 06:57:50;;;;;;;1.65;0.70;;;;;;;;;;5056866;28;20226;-63
2022/08/28 07:00:17;;;;;;;3.30;0.60;;;;;;;;;;5054142;28;20222;-63
2022/08/28 07:02:44;;;;;;;7.35;0.90;;;;;;;;;;5065567;28;20282;-62
2022/08/28 07:05:13;;;;;;;1.85;0.98;;;;;;;;;;5063899;28;20211;-63
2022/08/28 07:07:40;;;;;;;1.38;0.70;;;;;;;;;;5052011;28;20587;-62
2022/08/28 07:10:09;;;;;;;2.95;0.90;;;;;;;;;;5062185;28;20204;-62
2022/08/28 07:12:36;;;;;;;1.27;0.80;;;;;;;;;;5052101;28;20231;-61
2022/08/28 07:15:03;;;;;;;1.17;0.75;;;;;;;;;;5045836;28;20219;-62
2022/08/28 07:17:31;;;;;;;3.15;1.00;;;;;;;;;;5049030;28;20219;-62
2022/08/28 07:19:58;;;;;;;0.65;0.65;;;;;;;;;;5049781;28;20212;-63
2022/08/28 07:22:26;;;;;;;0.77;0.77;;;;;;;;;;5052844;28;20273;-61
2022/08/28 07:24:53;;;;;;;4.47;0.90;;;;;;;;;;5058431;28;20319;-62
2022/08/28 07:27:23;;;;;;;2.60;1.10;;;;;;;;;;5050370;28;20224;-63
2022/08/28 07:29:51;;;;;;;2.15;0.90;;;;;;;;;;5060782;28;20208;-63
2022/08/28 07:32:20;;;;;;;0.80;0.70;;;;;;;;;;5065409;28;20203;-63
2022/08/28 07:34:47;;;;;;;1.55;0.65;;;;;;;;;;5065483;28;20256;-62
2022/08/28 07:37:15;;;;;;;0.70;0.70;;;;;;;;;;5063259;28;20830;-63
2022/08/28 07:39:42;;;;;;;0.57;0.57;;;;;;;;;;5047748;28;20204;-62
2022/08/28 07:42:09;;;;;;;0.22;0.22;;;;;;;;;;5048961;28;20645;-61
2022/08/28 07:44:49;;;;;;;0.88;0.77;;;;;;;;;;5060449;28;20211;-63
2022/08/28 07:47:16;;;;;;;1.83;1.00;;;;;;;;;;5060663;28;20265;-65
2022/08/28 07:49:44;;;;;;;1.58;1.15;;;;;;;;;;5048079;28;20245;-64
2022/08/28 07:52:11;;;;;;;0.55;0.55;;;;;;;;;;5055560;28;20199;-64
2022/08/28 07:54:39;;;;;;;2.38;1.13;;;;;;;;;;5059759;28;20199;-65
2022/08/28 07:57:08;;;;;;;3.15;0.85;;;;;;;;;;5063070;28;20203;-64
2022/08/28 07:59:35;;;;;;;1.25;0.70;;;;;;;;;;5051844;28;20593;-65
2022/08/28 08:02:04;;;;;;;3.55;0.70;;;;;;;;;;5060887;28;20227;-67
2022/08/28 08:04:31;;;;;;;1.73;0.85;;;;;;;;;;5055099;28;20294;-66
2022/08/28 08:06:58;;;;;;;0.57;0.57;;;;;;;;;;5055749;28;20246;-66
2022/08/28 08:09:25;;;;;;;1.05;0.68;;;;;;;;;;5063719;28;20203;-65
2022/08/28 08:11:53;;;;;;;2.03;0.82;;;;;;;;;;5051484;28;20926;-65
2022/08/28 08:14:20;;;;;;;1.80;0.82;;;;;;;;;;5047997;28;20234;-65
2022/08/28 08:16:47;;;;;;;2.45;0.82;;;;;;;;;;5064035;28;20206;-66
2022/08/28 08:19:17;;;;;;;1.70;1.20;;;;;;;;;;5063634;28;20290;-64
2022/08/28 08:21:45;;;;;;;2.50;1.00;;;;;;;;;;5057410;28;20298;-64
2022/08/28 08:24:14;;;;;;;1.45;0.90;;;;;;;;;;5061170;28;20234;-65
2022/08/28 08:26:44;;;;;;;1.88;0.52;;;;;;;;;;5048969;28;20195;-65
2022/08/28 08:29:12;;;;;;;1.05;0.98;;;;;;;;;;5064266;28;20223;-62
2022/08/28 08:31:40;;;;;;;0.70;0.70;;;;;;;;;;5063554;28;20239;-65
2022/08/28 08:34:07;;;;;;;0.65;0.65;;;;;;;;;;5059055;28;20284;-64
2022/08/28 08:36:37;;;;;;;2.63;0.65;;;;;;;;;;5049500;28;20658;-60
2022/08/28 08:39:05;;;;;;;1.08;0.90;;;;;;;;;;5053698;28;20195;-63
2022/08/28 08:41:36;;;;;;;0.60;0.60;;;;;;;;;;5053273;28;20933;-62
2022/08/28 08:44:05;;;;;;;0.55;0.50;;;;;;;;;;5047424;28;20227;-62
2022/08/28 08:46:34;;;;;;;1.55;0.93;;;;;;;;;;5052653;28;20215;-63
2022/08/28 08:49:02;;;;;;;1.27;1.17;;;;;;;;;;5050244;28;20231;-62
2022/08/28 08:51:37;;;;;;;0.45;0.45;;;;;;;;;;5056432;28;20526;-62
2022/08/28 08:54:08;;;;;;;0.70;0.47;;;;;;;;;;5044605;28;20207;-64
2022/08/28 08:56:35;;;;;;;1.00;0.95;;;;;;;;;;5045432;28;20207;-62
2022/08/28 08:59:03;;;;;;;0.50;0.50;;;;;;;;;;5043854;28;20205;-63
2022/08/28 09:01:33;;;;;;;0.85;0.85;;;;;;;;;;5053657;28;20211;-62
2022/08/28 09:04:03;;;;;;;1.88;0.98;;;;;;;;;;5049188;28;20744;-63
2022/08/28 09:06:34;;;;;;;1.80;1.05;;;;;;;;;;5050365;28;20226;-64
2022/08/28 09:09:03;;;;;;;2.15;0.68;;;;;;;;;;5049825;28;20253;-63
2022/08/28 09:11:41;;;;;;;0.90;0.63;;;;;;;;;;5053895;28;20210;-63
2022/08/28 09:14:12;;;;;;;3.92;0.90;;;;;;;;;;5047531;28;20283;-63
2022/08/28 09:16:41;;;;;;;1.10;1.00;;;;;;;;;;5050274;28;20234;-63
2022/08/28 09:19:10;;;;;;;3.08;0.77;;;;;;;;;;5048928;28;20196;-63
2022/08/28 09:21:40;;;;;;;1.52;1.00;;;;;;;;;;5059767;28;20243;-64
2022/08/28 09:24:10;;;;;;;2.38;0.98;;;;;;;;;;5061204;28;20210;-63
2022/08/28 09:26:40;;;;;;;3.15;1.02;;;;;;;;;;5060081;28;20306;-63
2022/08/28 09:29:08;;;;;;;2.00;1.08;;;;;;;;;;5057279;28;21059;-64
2022/08/28 09:31:36;;;;;;;0.80;0.80;;;;;;;;;;5068414;28;20627;-64
2022/08/28 09:34:18;;;;;;;1.63;0.70;;;;;;;;;;5050984;28;20238;-64
2022/08/28 09:36:45;;;;;;;0.60;0.60;;;;;;;;;;5057917;28;20211;-63
2022/08/28 09:39:13;;;;;;;2.03;0.95;;;;;;;;;;5051222;28;20210;-64
2022/08/28 09:44:31;;;;;;;0.98;0.98;;;;;;;;;;5055433;28;20220;-65
2022/08/28 09:46:58;;;;;;;1.20;1.00;;;;;;;;;;5047712;28;20295;-65
2022/08/28 09:49:27;;;;;;;3.13;1.00;;;;;;;;;;5061515;28;20677;-64
2022/08/28 09:51:54;;;;;;;0.68;0.68;;;;;;;;;;5065961;28;20206;-64
2022/08/28 09:54:24;;;;;;;1.50;1.08;;;;;;;;;;5063948;28;20195;-67
2022/08/28 09:56:52;;;;;;;0.90;0.90;;;;;;;;;;5057299;28;20208;-67
2022/08/28 09:59:21;;;;;;;1.35;1.10;;;;;;;;;;5054038;28;20330;-66
2022/08/28 10:01:51;;;;;;;4.05;2.72;;;;;;;;;;5049792;28;20261;-67
2022/08/28 10:04:27;;;;;;;0.85;0.85;;;;;;;;;;5056092;28;20199;-65
2022/08/28 10:06:56;;;;;;;1.23;1.13;;;;;;;;;;5069783;28;20203;-66
2022/08/28 10:09:28;;;;;;;1.10;1.02;;;;;;;;;;5063427;28;20249;-64
2022/08/28 10:12:00;;;;;;;0.90;0.90;;;;;;;;;;5053469;28;20215;-63
2022/08/28 10:14:39;;;;;;;1.17;0.75;;;;;;;;;;5055533;28;20234;-63
2022/08/28 10:17:13;;;;;;;0.82;0.80;;;;;;;;;;5060030;28;20230;-64
2022/08/28 10:19:44;;;;;;;0.55;0.55;;;;;;;;;;5068906;28;20234;-64
2022/08/28 10:22:21;;;;;;;1.13;1.13;;;;;;;;;;5059882;28;20246;-64
2022/08/28 10:24:55;;;;;;;0.90;0.88;;;;;;;;;;5051065;28;20215;-65
2022/08/28 10:27:31;;;;;;;0.85;0.85;;;;;;;;;;5062785;28;20210;-64
2022/08/28 10:30:02;;;;;;;3.70;0.93;;;;;;;;;;5070065;28;20299;-62
2022/08/28 10:32:42;;;;;;;0.90;0.90;;;;;;;;;;5061478;28;20207;-64
2022/08/28 10:35:11;;;;;;;2.33;0.80;;;;;;;;;;5050621;28;20207;-65
2022/08/28 10:37:43;;;;;;;0.77;0.77;;;;;;;;;;5051033;28;20215;-66
2022/08/28 10:40:13;;;;;;;0.77;0.77;;;;;;;;;;5061782;28;20237;-63
2022/08/28 10:42:44;;;;;;;0.95;0.88;;;;;;;;;;5069079;28;20272;-62
2022/08/28 10:45:12;;;;;;;1.40;0.90;;;;;;;;;;5054161;28;20211;-62
2022/08/28 10:47:41;;;;;;;0.93;0.88;;;;;;;;;;5065617;28;20261;-63
2022/08/28 10:50:12;;;;;;;2.22;0.90;;;;;;;;;;5063059;28;20290;-62
2022/08/28 10:52:41;;;;;;;3.45;1.27;;;;;;;;;;5067977;28;20260;-65
2022/08/28 10:55:11;;;;;;;1.92;0.85;;;;;;;;;;5051800;28;20741;-63
2022/08/28 10:57:41;;;;;;;0.68;0.68;;;;;;;;;;5049877;28;20243;-64
2022/08/28 11:00:11;;;;;;;1.05;0.70;;;;;;;;;;5054751;28;20207;-64
2022/08/28 11:02:39;;;;;;;2.22;1.10;;;;;;;;;;5047626;28;20215;-64
2022/08/28 11:05:07;;;;;;;0.80;0.80;;;;;;;;;;5049248;28;20223;-64
2022/08/28 11:07:37;;;;;;;0.65;0.65;;;;;;;;;;5049938;28;20212;-65
2022/08/28 11:10:18;;;;;;;1.65;0.50;;;;;;;;;;5048396;28;20227;-65
2022/08/28 11:12:45;;;;;;;2.05;1.00;;;;;;;;;;5047343;28;20215;-64
2022/08/28 11:15:38;;;;;;;1.08;0.95;;;;;;;;;;5046572;28;20204;-65
2022/08/28 11:18:19;;;;;;;0.85;0.82;;;;;;;;;;5048815;28;20258;-65
2022/08/28 11:20:55;;;;;;;2.90;0.90;;;;;;;;;;5064455;28;20198;-65
2022/08/28 11:23:28;;;;;;;1.38;0.73;;;;;;;;;;5053365;28;20247;-64
2022/08/28 11:25:57;;;;;;;2.63;1.00;;;;;;;;;;5061047;28;20241;-64
2022/08/28 11:28:39;;;;;;;3.58;1.02;;;;;;;;;;5064229;28;20345;-60
2022/08/28 11:31:25;;;;;;;1.58;0.63;;;;;;;;;;5055559;28;20223;-60
2022/08/28 11:33:54;;;;;;;2.05;0.90;;;;;;;;;;5049566;28;20211;-67
2022/08/28 11:36:37;;;;;;;0.82;0.82;;;;;;;;;;5045865;28;20204;-68
2022/08/28 11:39:06;;;;;;;3.78;0.90;;;;;;;;;;5056339;28;20203;-68
2022/08/28 11:41:35;;;;;;;0.90;0.90;;;;;;;;;;5060988;28;20233;-67
2022/08/28 11:44:23;;;;;;;3.97;0.90;;;;;;;;;;5056872;28;20213;-67
2022/08/28 11:46:50;;;;;;;0.93;0.80;;;;;;;;;;5031024;28;20211;-67
2022/08/28 11:49:32;;;;;;;2.22;1.08;;;;;;;;;;5060140;28;20285;-67
2022/08/28 11:52:05;;;;;;;1.58;0.93;;;;;;;;;;5046172;28;20206;-67
2022/08/28 11:54:38;;;;;;;0.85;0.80;;;;;;;;;;5059679;28;20215;-67
2022/08/28 11:57:11;;;;;;;0.75;0.68;;;;;;;;;;5060335;28;20218;-67
2022/08/28 11:59:50;;;;;;;2.72;1.15;;;;;;;;;;5050959;28;20218;-66
2022/08/28 12:02:37;;;;;;;0.80;0.77;;;;;;;;;;5057378;28;20204;-66
2022/08/28 12:05:06;;;;;;;0.98;0.98;;;;;;;;;;5059382;28;20214;-68
2022/08/28 12:07:35;;;;;;;1.05;1.02;;;;;;;;;;5052425;28;20207;-68
2022/08/28 12:10:03;;;;;;;1.25;1.25;;;;;;;;;;5047328;28;20219;-68
2022/08/28 12:12:49;;;;;;;1.90;0.82;;;;;;;;;;5050011;28;20677;-68
2022/08/28 12:15:31;;;;;;;0.68;0.68;;;;;;;;;;5047476;28;20302;-67
2022/08/28 12:17:59;;;;;;;1.17;0.98;;;;;;;;;;5058852;28;20227;-67
2022/08/28 12:20:40;;;;;;;0.90;0.90;;;;;;;;;;5048082;28;20204;-68
2022/08/28 12:23:33;;;;;;;0.80;0.80;;;;;;;;;;5047461;28;20246;-67
2022/08/28 12:26:01;;;;;;;0.93;0.90;;;;;;;;;;5059464;28;20204;-67
2022/08/28 12:28:31;;;;;;;0.88;0.80;;;;;;;;;;5046047;28;20235;-68
2022/08/28 12:31:00;;;;;;;1.27;1.00;;;;;;;;;;5057643;28;20207;-67
2022/08/28 12:33:31;;;;;;;2.67;0.90;;;;;;;;;;5051071;28;20215;-68
2022/08/28 12:36:00;;;;;;;2.63;1.48;;;;;;;;;;5056878;28;20207;-65
2022/08/28 12:38:29;;;;;;;0.70;0.70;;;;;;;;;;5056015;28;20230;-69
2022/08/28 12:40:57;;;;;;;1.05;0.80;;;;;;;;;;5054025;28;20231;-68
2022/08/28 12:43:33;;;;;;;0.60;0.60;;;;;;;;;;5058508;28;20212;-69
2022/08/28 12:46:02;;;;;;;0.52;0.52;;;;;;;;;;5045838;28;20725;-69
2022/08/28 12:48:31;;;;;;;3.60;1.33;;;;;;;;;;5042901;28;20231;-71
2022/08/28 12:51:03;;;;;;;0.73;0.65;;;;;;;;;;5053512;28;20208;-70
2022/08/28 12:53:37;;;;;;;0.90;0.90;;;;;;;;;;5046124;28;20208;-69
2022/08/28 12:56:06;;;;;;;0.88;0.88;;;;;;;;;;5048075;28;20269;-69
2022/08/28 12:58:34;;;;;;;1.17;0.98;;;;;;;;;;5060068;28;20701;-72
2022/08/28 13:01:02;;;;;;;1.20;1.00;;;;;;;;;;5050793;28;20216;-71
2022/08/28 13:03:31;;;;;;;1.83;1.20;;;;;;;;;;5051628;28;20276;-66
2022/08/28 13:06:00;;;;;;;1.00;1.00;;;;;;;;;;5067285;28;20202;-66
2022/08/28 13:08:28;;;;;;;1.00;1.00;;;;;;;;;;5057253;28;20207;-63
2022/08/28 13:10:55;;;;;;;1.02;0.90;;;;;;;;;;5048504;28;20206;-65
2022/08/28 13:13:25;;;;;;;0.70;0.70;;;;;;;;;;5047683;28;20272;-64
2022/08/28 13:15:54;;;;;;;2.58;1.15;;;;;;;;;;5047519;28;20214;-64
2022/08/28 13:18:40;;;;;;;1.90;1.05;;;;;;;;;;5047127;28;20223;-63
2022/08/28 13:21:14;;;;;;;1.00;1.00;;;;;;;;;;5058129;28;20293;-63
2022/08/28 13:23:41;;;;;;;1.15;0.70;;;;;;;;;;5067934;28;20218;-64
2022/08/28 13:26:09;;;;;;;1.20;1.05;;;;;;;;;;5067543;28;20298;-66
2022/08/28 13:28:39;;;;;;;1.25;1.20;;;;;;;;;;5066882;28;20297;-65
2022/08/28 13:31:06;;;;;;;1.25;1.20;;;;;;;;;;5067467;28;20218;-65
2022/08/28 13:33:33;;;;;;;0.90;0.90;;;;;;;;;;5067439;28;20214;-65
2022/08/28 13:36:19;;;;;;;1.00;0.90;;;;;;;;;;5067273;28;20254;-65
2022/08/28 13:38:46;;;;;;;2.17;1.02;;;;;;;;;;5062020;28;20294;-66
2022/08/28 13:41:13;;;;;;;1.00;1.00;;;;;;;;;;5047510;28;20203;-65
2022/08/28 13:43:45;;;;;;;1.38;0.90;;;;;;;;;;5046783;28;20262;-65
2022/08/28 13:46:12;;;;;;;0.80;0.80;;;;;;;;;;5058343;28;20236;-65
2022/08/28 13:48:39;;;;;;;0.90;0.90;;;;;;;;;;5065817;28;20636;-65
2022/08/28 13:51:07;;;;;;;1.08;1.05;;;;;;;;;;5051960;28;20565;-65
2022/08/28 13:53:34;;;;;;;2.25;1.20;;;;;;;;;;5047270;28;20218;-66
2022/08/28 13:56:01;;;;;;;3.13;1.15;;;;;;;;;;5047649;28;20212;-64
2022/08/28 13:58:28;;;;;;;1.55;1.02;;;;;;;;;;5046757;28;20227;-64
2022/08/28 14:00:57;;;;;;;1.48;0.95;;;;;;;;;;5052153;28;20626;-66
2022/08/28 14:03:36;;;;;;;0.90;0.90;;;;;;;;;;5048551;28;20211;-64
2022/08/28 14:06:04;;;;;;;1.08;1.05;;;;;;;;;;5062070;28;20249;-65
2022/08/28 14:08:31;;;;;;;2.63;1.23;;;;;;;;;;5062040;28;20403;-67
2022/08/28 14:10:58;;;;;;;2.25;0.98;;;;;;;;;;5061669;28;20239;-66
2022/08/28 14:13:26;;;;;;;2.05;0.98;;;;;;;;;;5060692;28;20211;-66
2022/08/28 14:15:54;;;;;;;0.80;0.80;;;;;;;;;;5050485;28;20212;-66
2022/08/28 14:18:26;;;;;;;0.93;0.93;;;;;;;;;;5052354;28;20242;-66
2022/08/28 14:20:53;;;;;;;0.82;0.82;;;;;;;;;;5050097;28;20200;-67
2022/08/28 14:23:21;;;;;;;0.80;0.80;;;;;;;;;;5058793;28;20285;-67
2022/08/28 14:25:49;;;;;;;0.70;0.70;;;;;;;;;;5066912;28;20206;-66
2022/08/28 14:28:16;;;;;;;1.25;0.90;;;;;;;;;;5056829;28;20234;-66
2022/08/28 14:30:44;;;;;;;4.22;1.13;;;;;;;;;;5058803;28;20226;-66
2022/08/28 14:33:11;;;;;;;0.90;0.90;;;;;;;;;;5050286;28;20215;-67
2022/08/28 14:35:40;;;;;;;1.90;0.70;;;;;;;;;;5061688;28;20210;-65
2022/08/28 14:38:07;;;;;;;1.13;0.95;;;;;;;;;;5050285;28;20207;-66
2022/08/28 14:40:36;;;;;;;1.10;1.10;;;;;;;;;;5050091;28;20199;-65
2022/08/28 14:43:03;;;;;;;0.95;0.93;;;;;;;;;;5049713;28;20215;-65
2022/08/28 14:45:31;;;;;;;0.75;0.75;;;;;;;;;;5056049;28;20208;-65
2022/08/28 14:47:58;;;;;;;1.05;1.05;;;;;;;;;;5048123;28;20666;-65
2022/08/28 14:50:25;;;;;;;0.70;0.70;;;;;;;;;;5052083;28;20223;-66
2022/08/28 14:52:53;;;;;;;2.05;0.80;;;;;;;;;;5051897;28;20261;-64
2022/08/28 14:55:20;;;;;;;0.93;0.73;;;;;;;;;;5049633;28;20212;-65
2022/08/28 14:57:47;;;;;;;0.80;0.80;;;;;;;;;;5049630;28;20207;-66
2022/08/28 15:00:15;;;;;;;0.80;0.80;;;;;;;;;;5059830;28;20230;-65
2022/08/28 15:02:42;;;;;;;0.80;0.80;;;;;;;;;;5069489;28;20641;-65
2022/08/28 15:05:10;;;;;;;0.82;0.80;;;;;;;;;;5069232;28;20225;-65
2022/08/28 15:07:38;;;;;;;2.90;1.20;;;;;;;;;;5066010;28;20658;-65